sensor_id;sensor_type;location;lat;lon;timestamp;pressure;altitude;pressure_sealevel;temperature;humidity
4410;BME280;2218;51.408;7.208;2023-04-22T00:01:57;99060.75;;;19.36;46.83
4410;BME280;2218;51.408;7.208;2023-04-22T00:04:26;99058.09;;;19.36;46.71
4410;BME280;2218;51.408;7.208;2023-04-22T00:06:53;99054.63;;;19.36;46.73
4410;BME280;2218;51.408;7.208;2023-04-22T00:09:20;99058.09;;;19.36;46.84
4410;BME280;2218;51.408;7.208;2023-04-22T00:11:47;99056.44;;;19.35;46.72
4410;BME280;2218;51.408;7.208;2023-04-22T00:14:14;99055.59;;;19.35;46.72
4410;BME280;2218;51.408;7.208;2023-04-22T00:16:41;99049.50;;;19.34;46.90
4410;BME280;2218;51.408;7.208;2023-04-22T00:19:08;99053.06;;;19.33;46.58
4410;BME280;2218;51.408;7.208;2023-04-22T00:21:36;99046.88;;;19.34;46.57
4410;BME280;2218;51.408;7.208;2023-04-22T00:24:03;99050.44;;;19.33;46.62
4410;BME280;2218;51.408;7.208;2023-04-22T00:26:30;99045.16;;;19.33;46.63
4410;BME280;2218;51.408;7.208;2023-04-22T00:28:57;99056.66;;;19.32;46.83
4410;BME280;2218;51.408;7.208;2023-04-22T00:31:24;99035.59;;;19.32;46.76
4410;BME280;2218;51.408;7.208;2023-04-22T00:33:51;99046.13;;;19.32;46.83
4410;BME280;2218;51.408;7.208;2023-04-22T00:36:18;99046.13;;;19.32;46.68
4410;BME280;2218;51.408;7.208;2023-04-22T00:38:48;99053.06;;;19.33;46.66
4410;BME280;2218;51.408;7.208;2023-04-22T00:41:16;99057.50;;;19.33;46.76
4410;BME280;2218;51.408;7.208;2023-04-22T00:43:43;99060.25;;;19.31;46.64
4410;BME280;2218;51.408;7.208;2023-04-22T00:46:10;99055.84;;;19.32;46.76
4410;BME280;2218;51.408;7.208;2023-04-22T00:48:38;99053.34;;;19.30;46.71
4410;BME280;2218;51.408;7.208;2023-04-22T00:51:05;99052.50;;;19.30;46.61
4410;BME280;2218;51.408;7.208;2023-04-22T00:53:32;99054.28;;;19.29;46.81
4410;BME280;2218;51.408;7.208;2023-04-22T00:56:01;99043.75;;;19.29;46.89
4410;BME280;2218;51.408;7.208;2023-04-22T00:58:28;99042.91;;;19.29;46.66
4410;BME280;2218;51.408;7.208;2023-04-22T01:00:57;99044.69;;;19.28;46.73
4410;BME280;2218;51.408;7.208;2023-04-22T01:03:26;99038.59;;;19.28;46.86
4410;BME280;2218;51.408;7.208;2023-04-22T01:05:55;99042.06;;;19.28;46.81
4410;BME280;2218;51.408;7.208;2023-04-22T01:08:27;99043.03;;;19.27;46.80
4410;BME280;2218;51.408;7.208;2023-04-22T01:10:55;99031.66;;;19.27;46.56
4410;BME280;2218;51.408;7.208;2023-04-22T01:13:24;99038.59;;;19.28;46.87
4410;BME280;2218;51.408;7.208;2023-04-22T01:15:52;99031.66;;;19.27;46.82
4410;BME280;2218;51.408;7.208;2023-04-22T01:18:19;99023.88;;;19.25;46.76
4410;BME280;2218;51.408;7.208;2023-04-22T01:20:46;99036.09;;;19.26;46.64
4410;BME280;2218;51.408;7.208;2023-04-22T01:23:18;99028.31;;;19.25;46.64
4410;BME280;2218;51.408;7.208;2023-04-22T01:25:45;99020.41;;;19.25;46.72
4410;BME280;2218;51.408;7.208;2023-04-22T01:28:13;99023.88;;;19.25;46.90
4410;BME280;2218;51.408;7.208;2023-04-22T01:30:40;99029.16;;;19.25;46.48
4410;BME280;2218;51.408;7.208;2023-04-22T01:33:08;99037.16;;;19.24;46.77
4410;BME280;2218;51.408;7.208;2023-04-22T01:35:36;99032.72;;;19.24;46.57
4410;BME280;2218;51.408;7.208;2023-04-22T01:38:05;99031.88;;;19.24;46.67
4410;BME280;2218;51.408;7.208;2023-04-22T01:40:34;99032.72;;;19.24;46.60
4410;BME280;2218;51.408;7.208;2023-04-22T01:43:02;99038.00;;;19.24;46.86
4410;BME280;2218;51.408;7.208;2023-04-22T01:45:29;99038.97;;;19.23;46.57
4410;BME280;2218;51.408;7.208;2023-04-22T01:47:56;99036.31;;;19.23;46.56
4410;BME280;2218;51.408;7.208;2023-04-22T01:50:23;99038.25;;;19.21;46.89
4410;BME280;2218;51.408;7.208;2023-04-22T01:52:51;99042.56;;;19.22;46.64
4410;BME280;2218;51.408;7.208;2023-04-22T01:55:21;99032.97;;;19.21;46.66
4410;BME280;2218;51.408;7.208;2023-04-22T01:57:49;99036.59;;;19.20;46.52
4410;BME280;2218;51.408;7.208;2023-04-22T02:00:17;99032.97;;;19.21;46.65
4410;BME280;2218;51.408;7.208;2023-04-22T02:02:47;99032.16;;;19.21;46.48
4410;BME280;2218;51.408;7.208;2023-04-22T02:05:13;99031.31;;;19.20;46.59
4410;BME280;2218;51.408;7.208;2023-04-22T02:07:40;99032.16;;;19.21;46.73
4410;BME280;2218;51.408;7.208;2023-04-22T02:10:08;99040.06;;;19.21;46.63
4410;BME280;2218;51.408;7.208;2023-04-22T02:12:36;99035.75;;;19.20;46.85
4410;BME280;2218;51.408;7.208;2023-04-22T02:15:06;99028.69;;;19.20;46.68
4410;BME280;2218;51.408;7.208;2023-04-22T02:17:33;99033.94;;;19.20;46.47
4410;BME280;2218;51.408;7.208;2023-04-22T02:20:00;99034.88;;;19.19;46.68
4410;BME280;2218;51.408;7.208;2023-04-22T02:22:30;99033.22;;;19.18;46.62
4410;BME280;2218;51.408;7.208;2023-04-22T02:24:57;99023.50;;;19.19;46.38
4410;BME280;2218;51.408;7.208;2023-04-22T02:27:25;99024.47;;;19.18;46.36
4410;BME280;2218;51.408;7.208;2023-04-22T02:29:52;99028.78;;;19.19;46.52
4410;BME280;2218;51.408;7.208;2023-04-22T02:32:21;99022.69;;;19.18;46.43
4410;BME280;2218;51.408;7.208;2023-04-22T02:34:48;99020.03;;;19.18;46.55
4410;BME280;2218;51.408;7.208;2023-04-22T02:37:15;99022.69;;;19.18;46.61
4410;BME280;2218;51.408;7.208;2023-04-22T02:39:43;99017.41;;;19.18;46.32
4410;BME280;2218;51.408;7.208;2023-04-22T02:42:10;99020.19;;;19.17;46.45
4410;BME280;2218;51.408;7.208;2023-04-22T02:44:37;99020.03;;;19.18;46.67
4410;BME280;2218;51.408;7.208;2023-04-22T02:47:05;99021.84;;;19.18;46.44
4410;BME280;2218;51.408;7.208;2023-04-22T02:49:34;99017.41;;;19.18;46.34
4410;BME280;2218;51.408;7.208;2023-04-22T02:52:01;99020.03;;;19.18;46.24
4410;BME280;2218;51.408;7.208;2023-04-22T02:54:28;99022.69;;;19.18;46.55
4410;BME280;2218;51.408;7.208;2023-04-22T02:56:55;99006.88;;;19.18;46.38
4410;BME280;2218;51.408;7.208;2023-04-22T02:59:22;99005.22;;;19.17;46.27
4410;BME280;2218;51.408;7.208;2023-04-22T03:01:49;99010.47;;;19.17;46.25
4410;BME280;2218;51.408;7.208;2023-04-22T03:04:31;99000.78;;;19.18;46.29
4410;BME280;2218;51.408;7.208;2023-04-22T03:06:59;99000.78;;;19.18;46.38
4410;BME280;2218;51.408;7.208;2023-04-22T03:09:26;99000.78;;;19.18;46.19
4410;BME280;2218;51.408;7.208;2023-04-22T03:11:54;98992.88;;;19.18;46.06
4410;BME280;2218;51.408;7.208;2023-04-22T03:14:21;98996.34;;;19.18;46.35
4410;BME280;2218;51.408;7.208;2023-04-22T03:16:48;98990.25;;;19.18;46.28
4410;BME280;2218;51.408;7.208;2023-04-22T03:19:15;98986.78;;;19.17;46.21
4410;BME280;2218;51.408;7.208;2023-04-22T03:21:42;98991.06;;;19.18;46.16
4410;BME280;2218;51.408;7.208;2023-04-22T03:24:10;98995.50;;;19.18;46.16
4410;BME280;2218;51.408;7.208;2023-04-22T03:26:43;98986.78;;;19.17;46.18
4410;BME280;2218;51.408;7.208;2023-04-22T03:29:10;98978.88;;;19.17;46.09
4410;BME280;2218;51.408;7.208;2023-04-22T03:31:37;98978.03;;;19.17;46.23
4410;BME280;2218;51.408;7.208;2023-04-22T03:34:04;98985.09;;;19.16;46.02
4410;BME280;2218;51.408;7.208;2023-04-22T03:36:31;98976.25;;;19.17;46.18
4410;BME280;2218;51.408;7.208;2023-04-22T03:38:58;98978.03;;;19.17;46.02
4410;BME280;2218;51.408;7.208;2023-04-22T03:41:27;98972.78;;;19.17;46.04
4410;BME280;2218;51.408;7.208;2023-04-22T03:43:54;98978.88;;;19.17;46.12
4410;BME280;2218;51.408;7.208;2023-04-22T03:46:21;98972.78;;;19.17;45.95
4410;BME280;2218;51.408;7.208;2023-04-22T03:49:02;98971.09;;;19.16;46.28
4410;BME280;2218;51.408;7.208;2023-04-22T03:51:32;98965.84;;;19.16;46.07
4410;BME280;2218;51.408;7.208;2023-04-22T03:54:04;98971.09;;;19.16;45.83
4410;BME280;2218;51.408;7.208;2023-04-22T03:56:35;98966.66;;;19.16;45.97
4410;BME280;2218;51.408;7.208;2023-04-22T03:59:02;98963.06;;;19.17;45.92
4410;BME280;2218;51.408;7.208;2023-04-22T04:01:29;98964.88;;;19.17;46.04
4410;BME280;2218;51.408;7.208;2023-04-22T04:04:00;98959.72;;;19.15;45.92
4410;BME280;2218;51.408;7.208;2023-04-22T04:06:35;98957.94;;;19.16;45.99
4410;BME280;2218;51.408;7.208;2023-04-22T04:09:03;98952.66;;;19.16;45.88
4410;BME280;2218;51.408;7.208;2023-04-22T04:11:31;98950.88;;;19.16;46.04
4410;BME280;2218;51.408;7.208;2023-04-22T04:14:00;98949.19;;;19.15;46.22
4410;BME280;2218;51.408;7.208;2023-04-22T04:16:37;98943.94;;;19.15;45.79
4410;BME280;2218;51.408;7.208;2023-04-22T04:19:10;98950.03;;;19.16;46.21
4410;BME280;2218;51.408;7.208;2023-04-22T04:21:37;98950.88;;;19.16;46.18
4410;BME280;2218;51.408;7.208;2023-04-22T04:24:06;98955.28;;;19.16;46.04
4410;BME280;2218;51.408;7.208;2023-04-22T04:26:39;98950.03;;;19.16;46.10
4410;BME280;2218;51.408;7.208;2023-04-22T04:29:13;98954.47;;;19.15;45.87
4410;BME280;2218;51.408;7.208;2023-04-22T04:31:45;98958.03;;;19.14;46.10
4410;BME280;2218;51.408;7.208;2023-04-22T04:34:12;98953.63;;;19.15;45.94
4410;BME280;2218;51.408;7.208;2023-04-22T04:36:40;98949.19;;;19.15;46.02
4410;BME280;2218;51.408;7.208;2023-04-22T04:39:14;98950.88;;;19.16;45.98
4410;BME280;2218;51.408;7.208;2023-04-22T04:41:44;98936.03;;;19.15;45.84
4410;BME280;2218;51.408;7.208;2023-04-22T04:44:14;98942.22;;;19.14;45.86
4410;BME280;2218;51.408;7.208;2023-04-22T04:46:41;98940.47;;;19.15;45.86
4410;BME280;2218;51.408;7.208;2023-04-22T04:49:09;98937.94;;;19.13;45.88
4410;BME280;2218;51.408;7.208;2023-04-22T04:51:46;98931.69;;;19.14;45.94
4410;BME280;2218;51.408;7.208;2023-04-22T04:54:13;98931.69;;;19.14;45.92
4410;BME280;2218;51.408;7.208;2023-04-22T04:56:41;98931.69;;;19.14;45.82
4410;BME280;2218;51.408;7.208;2023-04-22T04:59:09;98932.56;;;19.15;46.03
4410;BME280;2218;51.408;7.208;2023-04-22T05:01:39;98931.69;;;19.14;46.05
4410;BME280;2218;51.408;7.208;2023-04-22T05:04:08;98934.34;;;19.14;45.75
4410;BME280;2218;51.408;7.208;2023-04-22T05:06:38;98931.69;;;19.14;45.79
4410;BME280;2218;51.408;7.208;2023-04-22T05:09:05;98936.13;;;19.14;46.03
4410;BME280;2218;51.408;7.208;2023-04-22T05:11:34;98944.03;;;19.14;45.90
4410;BME280;2218;51.408;7.208;2023-04-22T05:14:07;98939.72;;;19.13;46.03
4410;BME280;2218;51.408;7.208;2023-04-22T05:16:40;98939.59;;;19.14;45.94
4410;BME280;2218;51.408;7.208;2023-04-22T05:19:08;98939.59;;;19.14;45.97
4410;BME280;2218;51.408;7.208;2023-04-22T05:21:35;98936.97;;;19.14;46.05
4410;BME280;2218;51.408;7.208;2023-04-22T05:24:03;98926.44;;;19.14;45.97
4410;BME280;2218;51.408;7.208;2023-04-22T05:26:31;98931.69;;;19.14;45.92
4410;BME280;2218;51.408;7.208;2023-04-22T05:29:00;98936.13;;;19.14;45.99
4410;BME280;2218;51.408;7.208;2023-04-22T05:31:27;98930.03;;;19.13;45.80
4410;BME280;2218;51.408;7.208;2023-04-22T05:33:56;98926.44;;;19.14;45.95
4410;BME280;2218;51.408;7.208;2023-04-22T05:36:23;98926.44;;;19.14;45.83
4410;BME280;2218;51.408;7.208;2023-04-22T05:38:52;98929.06;;;19.14;45.94
4410;BME280;2218;51.408;7.208;2023-04-22T05:41:19;98930.88;;;19.14;46.01
4410;BME280;2218;51.408;7.208;2023-04-22T05:43:46;98934.34;;;19.14;45.66
4410;BME280;2218;51.408;7.208;2023-04-22T05:46:16;98926.44;;;19.14;45.76
4410;BME280;2218;51.408;7.208;2023-04-22T05:48:45;98932.56;;;19.15;45.88
4410;BME280;2218;51.408;7.208;2023-04-22T05:51:44;98931.69;;;19.14;45.74
4410;BME280;2218;51.408;7.208;2023-04-22T05:54:14;98926.44;;;19.14;45.81
4410;BME280;2218;51.408;7.208;2023-04-22T05:56:41;98934.34;;;19.14;45.90
4410;BME280;2218;51.408;7.208;2023-04-22T05:59:08;98936.03;;;19.15;45.66
4410;BME280;2218;51.408;7.208;2023-04-22T06:01:35;98927.28;;;19.15;45.79
4410;BME280;2218;51.408;7.208;2023-04-22T06:04:06;98935.06;;;19.16;45.77
4410;BME280;2218;51.408;7.208;2023-04-22T06:06:35;98933.41;;;19.15;45.54
4410;BME280;2218;51.408;7.208;2023-04-22T06:09:03;98937.69;;;19.16;45.79
4410;BME280;2218;51.408;7.208;2023-04-22T06:11:31;98939.38;;;19.17;45.52
4410;BME280;2218;51.408;7.208;2023-04-22T06:13:58;98941.28;;;19.15;45.80
4410;BME280;2218;51.408;7.208;2023-04-22T06:16:26;98938.53;;;19.17;45.49
4410;BME280;2218;51.408;7.208;2023-04-22T06:18:53;98939.38;;;19.17;45.61
4410;BME280;2218;51.408;7.208;2023-04-22T06:21:22;98936.72;;;19.17;45.61
4410;BME280;2218;51.408;7.208;2023-04-22T06:23:49;98926.19;;;19.17;45.58
4410;BME280;2218;51.408;7.208;2023-04-22T06:26:17;98921.75;;;19.18;45.51
4410;BME280;2218;51.408;7.208;2023-04-22T06:28:44;98914.69;;;19.18;45.75
4410;BME280;2218;51.408;7.208;2023-04-22T06:31:16;98922.59;;;19.18;45.45
4410;BME280;2218;51.408;7.208;2023-04-22T06:33:43;98923.44;;;19.19;45.65
4410;BME280;2218;51.408;7.208;2023-04-22T06:36:11;98927.84;;;19.18;45.50
4410;BME280;2218;51.408;7.208;2023-04-22T06:38:39;98931.22;;;19.20;45.29
4410;BME280;2218;51.408;7.208;2023-04-22T06:41:30;98933.03;;;19.20;45.31
4410;BME280;2218;51.408;7.208;2023-04-22T06:44:01;98925.97;;;19.20;45.30
4410;BME280;2218;51.408;7.208;2023-04-22T06:46:47;98925.13;;;19.20;45.67
4410;BME280;2218;51.408;7.208;2023-04-22T06:49:32;98922.34;;;19.21;45.47
4410;BME280;2218;51.408;7.208;2023-04-22T06:52:22;98913.47;;;19.22;45.78
4410;BME280;2218;51.408;7.208;2023-04-22T06:54:51;98916.81;;;19.24;45.68
4410;BME280;2218;51.408;7.208;2023-04-22T06:57:19;98914.91;;;19.26;45.56
4410;BME280;2218;51.408;7.208;2023-04-22T06:59:46;98916.56;;;19.27;45.70
4410;BME280;2218;51.408;7.208;2023-04-22T07:02:14;98911.31;;;19.27;45.46
4410;BME280;2218;51.408;7.208;2023-04-22T07:04:42;98909.41;;;19.29;45.13
4410;BME280;2218;51.408;7.208;2023-04-22T07:07:09;98913.72;;;19.30;45.61
4410;BME280;2218;51.408;7.208;2023-04-22T07:09:36;98913.72;;;19.30;45.74
4410;BME280;2218;51.408;7.208;2023-04-22T07:12:04;98908.44;;;19.30;45.72
4410;BME280;2218;51.408;7.208;2023-04-22T07:14:32;98916.34;;;19.30;45.60
4410;BME280;2218;51.408;7.208;2023-04-22T07:16:59;98909.13;;;19.32;45.60
4410;BME280;2218;51.408;7.208;2023-04-22T07:19:26;98911.53;;;19.35;45.37
4410;BME280;2218;51.408;7.208;2023-04-22T07:21:54;98916.53;;;19.38;45.29
4410;BME280;2218;51.408;7.208;2023-04-22T07:24:21;98913.78;;;19.40;45.47
4410;BME280;2218;51.408;7.208;2023-04-22T07:26:48;98910.19;;;19.41;45.52
4410;BME280;2218;51.408;7.208;2023-04-22T07:29:15;98899.50;;;19.43;45.45
4410;BME280;2218;51.408;7.208;2023-04-22T07:31:43;98902.16;;;19.43;45.27
4410;BME280;2218;51.408;7.208;2023-04-22T07:34:10;98910.78;;;19.45;45.28
4410;BME280;2218;51.408;7.208;2023-04-22T07:36:37;98905.38;;;19.46;45.50
4410;BME280;2218;51.408;7.208;2023-04-22T07:39:04;98914.81;;;19.49;45.31
4410;BME280;2218;51.408;7.208;2023-04-22T07:41:31;98906.06;;;19.48;45.25
4410;BME280;2218;51.408;7.208;2023-04-22T07:43:59;98903.31;;;19.50;45.28
4410;BME280;2218;51.408;7.208;2023-04-22T07:46:26;98902.34;;;19.51;45.39
4410;BME280;2218;51.408;7.208;2023-04-22T07:48:54;98898.75;;;19.52;45.43
4410;BME280;2218;51.408;7.208;2023-04-22T07:51:21;98898.63;;;19.53;45.51
4410;BME280;2218;51.408;7.208;2023-04-22T07:53:48;98891.53;;;19.54;45.57
4410;BME280;2218;51.408;7.208;2023-04-22T07:56:15;98899.44;;;19.54;45.52
4410;BME280;2218;51.408;7.208;2023-04-22T07:58:42;98891.53;;;19.54;45.55
4410;BME280;2218;51.408;7.208;2023-04-22T08:01:08;98887.97;;;19.55;45.34
4410;BME280;2218;51.408;7.208;2023-04-22T08:03:35;98892.25;;;19.56;45.50
4410;BME280;2218;51.408;7.208;2023-04-22T08:06:04;98889.63;;;19.56;45.42
4410;BME280;2218;51.408;7.208;2023-04-22T08:08:31;98879.09;;;19.56;45.52
4410;BME280;2218;51.408;7.208;2023-04-22T08:10:58;98887.69;;;19.58;45.38
4410;BME280;2218;51.408;7.208;2023-04-22T08:13:25;98886.72;;;19.59;45.30
4410;BME280;2218;51.408;7.208;2023-04-22T08:15:52;98887.47;;;19.61;45.55
4410;BME280;2218;51.408;7.208;2023-04-22T08:18:19;98893.59;;;19.61;45.33
4410;BME280;2218;51.408;7.208;2023-04-22T08:20:46;98875.97;;;19.62;45.19
4410;BME280;2218;51.408;7.208;2023-04-22T08:23:15;98871.53;;;19.62;45.22
4410;BME280;2218;51.408;7.208;2023-04-22T08:25:42;98870.56;;;19.63;45.25
4410;BME280;2218;51.408;7.208;2023-04-22T08:28:08;98869.72;;;19.63;45.51
4410;BME280;2218;51.408;7.208;2023-04-22T08:30:36;98875.81;;;19.63;45.26
4410;BME280;2218;51.408;7.208;2023-04-22T08:33:03;98873.09;;;19.65;45.24
4410;BME280;2218;51.408;7.208;2023-04-22T08:35:30;98874.03;;;19.64;45.31
4410;BME280;2218;51.408;7.208;2023-04-22T08:37:59;98878.34;;;19.65;45.45
4410;BME280;2218;51.408;7.208;2023-04-22T08:40:28;98888.91;;;19.65;45.21
4410;BME280;2218;51.408;7.208;2023-04-22T08:42:56;98881.69;;;19.67;45.45
4410;BME280;2218;51.408;7.208;2023-04-22T08:45:23;98882.53;;;19.68;45.46
4410;BME280;2218;51.408;7.208;2023-04-22T08:47:52;98875.44;;;19.68;45.32
4410;BME280;2218;51.408;7.208;2023-04-22T08:50:20;98878.06;;;19.68;45.54
4410;BME280;2218;51.408;7.208;2023-04-22T08:52:48;98869.22;;;19.69;45.51
4410;BME280;2218;51.408;7.208;2023-04-22T08:55:15;98863.81;;;19.71;45.46
4410;BME280;2218;51.408;7.208;2023-04-22T08:57:44;98855.06;;;19.70;45.22
4410;BME280;2218;51.408;7.208;2023-04-22T09:00:15;98859.38;;;19.71;45.22
4410;BME280;2218;51.408;7.208;2023-04-22T09:02:45;98858.41;;;19.72;44.90
4410;BME280;2218;51.408;7.208;2023-04-22T09:05:13;98859.25;;;19.73;45.15
4410;BME280;2218;51.408;7.208;2023-04-22T09:07:41;98860.91;;;19.74;45.37
4410;BME280;2218;51.408;7.208;2023-04-22T09:10:09;98861.78;;;19.74;45.30
4410;BME280;2218;51.408;7.208;2023-04-22T09:12:39;98855.63;;;19.74;45.12
4410;BME280;2218;51.408;7.208;2023-04-22T09:15:09;98853.88;;;19.74;45.20
4410;BME280;2218;51.408;7.208;2023-04-22T09:17:37;98852.88;;;19.75;45.33
4410;BME280;2218;51.408;7.208;2023-04-22T09:20:06;98842.34;;;19.75;45.21
4410;BME280;2218;51.408;7.208;2023-04-22T09:22:38;98837.06;;;19.75;45.27
4410;BME280;2218;51.408;7.208;2023-04-22T09:25:14;98836.09;;;19.76;45.28
4410;BME280;2218;51.408;7.208;2023-04-22T09:27:41;98837.75;;;19.77;45.28
4410;BME280;2218;51.408;7.208;2023-04-22T09:30:10;98843.88;;;19.78;45.36
4410;BME280;2218;51.408;7.208;2023-04-22T09:32:39;98830.69;;;19.78;45.42
4410;BME280;2218;51.408;7.208;2023-04-22T09:35:07;98836.78;;;19.78;45.07
4410;BME280;2218;51.408;7.208;2023-04-22T09:37:34;98824.44;;;19.79;45.26
4410;BME280;2218;51.408;7.208;2023-04-22T09:40:01;98830.56;;;19.79;45.36
4410;BME280;2218;51.408;7.208;2023-04-22T09:42:28;98834.88;;;19.80;45.38
4410;BME280;2218;51.408;7.208;2023-04-22T09:44:58;98834.88;;;19.80;45.64
4410;BME280;2218;51.408;7.208;2023-04-22T09:47:34;98839.19;;;19.81;45.49
4410;BME280;2218;51.408;7.208;2023-04-22T09:50:03;98836.53;;;19.81;45.26
4410;BME280;2218;51.408;7.208;2023-04-22T09:52:32;98841.81;;;19.81;45.41
4410;BME280;2218;51.408;7.208;2023-04-22T09:54:59;98820.72;;;19.81;45.10
4410;BME280;2218;51.408;7.208;2023-04-22T09:57:26;98825.16;;;19.81;45.21
4410;BME280;2218;51.408;7.208;2023-04-22T09:59:53;98826.00;;;19.81;45.39
4410;BME280;2218;51.408;7.208;2023-04-22T10:02:29;98815.44;;;19.81;45.45
4410;BME280;2218;51.408;7.208;2023-04-22T10:04:56;98821.56;;;19.82;45.47
4410;BME280;2218;51.408;7.208;2023-04-22T10:07:26;98814.63;;;19.81;45.18
4410;BME280;2218;51.408;7.208;2023-04-22T10:09:56;98817.13;;;19.82;45.70
4410;BME280;2218;51.408;7.208;2023-04-22T10:12:23;98811.84;;;19.82;45.21
4410;BME280;2218;51.408;7.208;2023-04-22T10:14:51;98817.13;;;19.82;45.43
4410;BME280;2218;51.408;7.208;2023-04-22T10:17:19;98811.84;;;19.82;45.41
4410;BME280;2218;51.408;7.208;2023-04-22T10:19:48;98807.41;;;19.83;45.37
4410;BME280;2218;51.408;7.208;2023-04-22T10:22:16;98813.50;;;19.83;45.29
4410;BME280;2218;51.408;7.208;2023-04-22T10:24:46;98802.97;;;19.83;45.40
4410;BME280;2218;51.408;7.208;2023-04-22T10:27:20;98790.75;;;19.82;45.18
4410;BME280;2218;51.408;7.208;2023-04-22T10:29:47;98797.69;;;19.83;45.38
4410;BME280;2218;51.408;7.208;2023-04-22T10:32:25;98794.94;;;19.85;45.15
4410;BME280;2218;51.408;7.208;2023-04-22T10:35:10;98789.66;;;19.85;45.22
4410;BME280;2218;51.408;7.208;2023-04-22T10:37:41;98785.22;;;19.85;45.42
4410;BME280;2218;51.408;7.208;2023-04-22T10:40:14;98785.22;;;19.85;45.22
4410;BME280;2218;51.408;7.208;2023-04-22T10:42:48;98787.72;;;19.87;45.09
4410;BME280;2218;51.408;7.208;2023-04-22T10:45:16;98784.94;;;19.88;45.08
4410;BME280;2218;51.408;7.208;2023-04-22T10:47:43;98785.91;;;19.87;45.10
4410;BME280;2218;51.408;7.208;2023-04-22T10:50:22;98785.81;;;19.89;45.19
4410;BME280;2218;51.408;7.208;2023-04-22T10:52:54;98787.56;;;19.88;45.25
4410;BME280;2218;51.408;7.208;2023-04-22T10:55:23;98785.81;;;19.89;44.93
4410;BME280;2218;51.408;7.208;2023-04-22T10:57:53;98790.22;;;19.88;45.02
4410;BME280;2218;51.408;7.208;2023-04-22T11:00:37;98795.47;;;19.88;45.05
4410;BME280;2218;51.408;7.208;2023-04-22T11:03:12;98796.34;;;19.89;45.04
4410;BME280;2218;51.408;7.208;2023-04-22T11:05:41;98788.44;;;19.89;45.07
4410;BME280;2218;51.408;7.208;2023-04-22T11:08:13;98788.44;;;19.89;44.77
4410;BME280;2218;51.408;7.208;2023-04-22T11:10:43;98798.97;;;19.89;45.04
4410;BME280;2218;51.408;7.208;2023-04-22T11:13:13;98789.38;;;19.88;45.02
4410;BME280;2218;51.408;7.208;2023-04-22T11:15:43;98793.81;;;19.87;45.06
4410;BME280;2218;51.408;7.208;2023-04-22T11:18:16;98793.81;;;19.87;45.04
4410;BME280;2218;51.408;7.208;2023-04-22T11:20:45;98786.88;;;19.86;44.98
4410;BME280;2218;51.408;7.208;2023-04-22T11:23:19;98795.63;;;19.87;45.08
4410;BME280;2218;51.408;7.208;2023-04-22T11:25:46;98796.47;;;19.87;45.06
4410;BME280;2218;51.408;7.208;2023-04-22T11:28:13;98790.22;;;19.88;44.77
4410;BME280;2218;51.408;7.208;2023-04-22T11:30:40;98800.75;;;19.88;44.99
4410;BME280;2218;51.408;7.208;2023-04-22T11:33:07;98792.75;;;19.90;44.85
4410;BME280;2218;51.408;7.208;2023-04-22T11:35:35;98801.63;;;19.89;44.81
4410;BME280;2218;51.408;7.208;2023-04-22T11:38:05;98802.47;;;19.90;44.93
4410;BME280;2218;51.408;7.208;2023-04-22T11:40:35;98804.13;;;19.91;44.84
4410;BME280;2218;51.408;7.208;2023-04-22T11:43:04;98812.03;;;19.91;44.92
4410;BME280;2218;51.408;7.208;2023-04-22T11:45:33;98809.38;;;19.91;45.06
4410;BME280;2218;51.408;7.208;2023-04-22T11:48:04;98811.06;;;19.92;45.06
4410;BME280;2218;51.408;7.208;2023-04-22T11:50:34;98808.41;;;19.92;45.40
4410;BME280;2218;51.408;7.208;2023-04-22T11:53:12;98809.09;;;19.94;45.15
4410;BME280;2218;51.408;7.208;2023-04-22T11:55:41;98804.69;;;19.94;44.79
4410;BME280;2218;51.408;7.208;2023-04-22T11:58:11;98796.66;;;19.96;44.80
4410;BME280;2218;51.408;7.208;2023-04-22T12:00:42;98801.91;;;19.96;44.89
4410;BME280;2218;51.408;7.208;2023-04-22T12:03:13;98796.66;;;19.96;44.81
4410;BME280;2218;51.408;7.208;2023-04-22T12:05:43;98796.66;;;19.96;44.83
4410;BME280;2218;51.408;7.208;2023-04-22T12:08:14;98793.88;;;19.97;44.94
4410;BME280;2218;51.408;7.208;2023-04-22T12:10:44;98797.34;;;19.98;44.82
4410;BME280;2218;51.408;7.208;2023-04-22T12:13:18;98799.13;;;19.97;44.74
4410;BME280;2218;51.408;7.208;2023-04-22T12:15:46;98799.97;;;19.98;44.73
4410;BME280;2218;51.408;7.208;2023-04-22T12:18:13;98797.34;;;19.98;44.82
4410;BME280;2218;51.408;7.208;2023-04-22T12:20:41;98795.53;;;19.98;44.80
4410;BME280;2218;51.408;7.208;2023-04-22T12:23:14;98796.34;;;19.99;44.92
4410;BME280;2218;51.408;7.208;2023-04-22T12:25:41;98799.00;;;19.99;44.73
4410;BME280;2218;51.408;7.208;2023-04-22T12:28:10;98805.00;;;20.01;44.82
4410;BME280;2218;51.408;7.208;2023-04-22T12:30:37;98794.44;;;20.01;44.76
4410;BME280;2218;51.408;7.208;2023-04-22T12:33:04;98800.69;;;20.00;44.60
4410;BME280;2218;51.408;7.208;2023-04-22T12:35:32;98796.09;;;20.02;44.68
4410;BME280;2218;51.408;7.208;2023-04-22T12:37:59;98799.72;;;20.01;44.68
4410;BME280;2218;51.408;7.208;2023-04-22T12:40:28;98796.34;;;19.99;44.79
4410;BME280;2218;51.408;7.208;2023-04-22T12:42:55;98799.00;;;19.99;44.73
4410;BME280;2218;51.408;7.208;2023-04-22T12:45:22;98802.75;;;19.96;44.84
4410;BME280;2218;51.408;7.208;2023-04-22T12:47:50;98804.41;;;19.97;44.92
4410;BME280;2218;51.408;7.208;2023-04-22T12:50:20;98802.75;;;19.96;45.02
4410;BME280;2218;51.408;7.208;2023-04-22T12:52:46;98804.41;;;19.97;44.99
4410;BME280;2218;51.408;7.208;2023-04-22T12:55:13;98801.63;;;19.99;44.94
4410;BME280;2218;51.408;7.208;2023-04-22T12:57:43;98802.34;;;20.01;44.90
4410;BME280;2218;51.408;7.208;2023-04-22T13:00:11;98806.66;;;20.02;44.80
4410;BME280;2218;51.408;7.208;2023-04-22T13:02:40;98796.78;;;20.04;44.70
4410;BME280;2218;51.408;7.208;2023-04-22T13:05:08;98802.06;;;20.04;44.72
4410;BME280;2218;51.408;7.208;2023-04-22T13:07:36;98803.88;;;20.03;44.79
4410;BME280;2218;51.408;7.208;2023-04-22T13:10:05;98799.44;;;20.04;44.69
4410;BME280;2218;51.408;7.208;2023-04-22T13:12:33;98805.56;;;20.04;44.77
4410;BME280;2218;51.408;7.208;2023-04-22T13:15:02;98801.13;;;20.05;44.68
4410;BME280;2218;51.408;7.208;2023-04-22T13:17:31;98792.25;;;20.06;45.08
4410;BME280;2218;51.408;7.208;2023-04-22T13:19:58;98787.78;;;20.06;44.73
4410;BME280;2218;51.408;7.208;2023-04-22T13:22:26;98789.47;;;20.07;44.87
4410;BME280;2218;51.408;7.208;2023-04-22T13:24:53;98783.34;;;20.07;44.79
4410;BME280;2218;51.408;7.208;2023-04-22T13:27:20;98783.34;;;20.07;44.71
4410;BME280;2218;51.408;7.208;2023-04-22T13:29:47;98778.06;;;20.07;44.80
4410;BME280;2218;51.408;7.208;2023-04-22T13:32:16;98775.44;;;20.07;44.75